createdAt,value
2018-12-30T00:04:05.799Z,82
2018-12-30T00:19:18.479Z,83.4
2018-12-30T00:34:30.796Z,82.5
2018-12-30T00:49:43.237Z,82.5
2018-12-30T01:04:55.856Z,82.5
2018-12-30T01:20:04.714Z,83.2
2018-12-30T01:35:21.059Z,86.3
2018-12-30T01:50:33.775Z,87
2018-12-30T02:05:46.451Z,89
2018-12-30T02:20:58.975Z,88.7
2018-12-30T02:36:13.246Z,89.5
2018-12-30T02:51:24.020Z,90.8
2018-12-30T03:06:36.625Z,91.6
2018-12-30T03:21:49.060Z,92.7
2018-12-30T03:36:59.118Z,92.8
2018-12-30T03:52:14.480Z,93.5
2018-12-30T04:07:27.035Z,93.5
2018-12-30T04:22:39.526Z,94.5
2018-12-30T04:37:43.105Z,95.5
2018-12-30T04:53:04.808Z,96.1
2018-12-30T05:08:17.444Z,97.2
2018-12-30T05:23:30.258Z,98
2018-12-30T05:38:43.125Z,98.5
2018-12-30T05:53:54.309Z,98.8
2018-12-30T06:09:08.968Z,99.3
2018-12-30T06:24:21.905Z,96.5
2018-12-30T06:39:35.163Z,96
2018-12-30T06:54:39.402Z,94.8
2018-12-30T07:10:00.346Z,96
2018-12-30T07:25:13.020Z,96.8
2018-12-30T07:40:25.725Z,94.8
2018-12-30T07:55:38.570Z,93.5
2018-12-30T08:10:50.393Z,92.3
2018-12-30T08:26:04.004Z,91.3
2018-12-30T08:41:16.461Z,88.6
2018-12-30T08:56:29.202Z,82.8
2018-12-30T09:11:34.695Z,79.2
2018-12-30T09:26:54.604Z,76.3
2018-12-30T09:42:07.279Z,74.9
2018-12-30T09:57:19.916Z,74.3
2018-12-30T10:12:32.588Z,73.3
2018-12-30T10:27:45.347Z,73.5
2018-12-30T10:42:58.113Z,71.4
2018-12-30T10:58:11.573Z,72
2018-12-30T11:13:23.920Z,71.1
2018-12-30T11:28:31.098Z,71.7
2018-12-30T11:43:49.630Z,71.2
2018-12-30T11:59:02.739Z,70.7
2018-12-30T12:14:15.745Z,71.8
2018-12-30T12:29:28.947Z,75.3
2018-12-30T12:44:41.990Z,77.2
2018-12-30T12:59:55.147Z,75.2
2018-12-30T13:15:08.192Z,75.7
2018-12-30T13:30:21.497Z,76
2018-12-30T13:45:29.348Z,74.9
2018-12-30T14:00:47.954Z,72.6
2018-12-30T14:16:01.703Z,72.4
2018-12-30T14:31:14.650Z,70.7
2018-12-30T14:46:35.043Z,73
2018-12-30T15:01:40.675Z,73.8
2018-12-30T15:16:53.774Z,73.7
2018-12-30T15:32:06.707Z,73
2018-12-30T15:47:20.440Z,72.2
2018-12-30T16:02:28.128Z,72
2018-12-30T16:17:45.940Z,73.1
2018-12-30T16:32:58.994Z,73.7
2018-12-30T16:48:12.199Z,72.6
2018-12-30T17:03:25.233Z,74.7
2018-12-30T17:18:38.255Z,73.8
2018-12-30T17:33:51.443Z,76.2
2018-12-30T17:49:04.860Z,77.1
2018-12-30T18:04:17.544Z,76
2018-12-30T18:19:27.264Z,77.3
2018-12-30T18:34:43.633Z,76.8
2018-12-30T18:49:56.782Z,77.5
2018-12-30T19:05:09.842Z,75.9
2018-12-30T19:20:23.190Z,76
2018-12-30T19:35:35.931Z,77.6
2018-12-30T19:50:48.882Z,78.3
2018-12-30T20:06:01.854Z,79.2
2018-12-30T20:21:14.693Z,82.3
2018-12-30T20:36:24.801Z,81.2
2018-12-30T20:51:40.510Z,81.2
2018-12-30T21:06:53.386Z,81.2
2018-12-30T21:22:06.212Z,81.2
2018-12-30T21:37:09.926Z,82.3
2018-12-30T21:52:31.614Z,83.9
2018-12-30T22:07:44.424Z,81.5
2018-12-30T22:22:57.273Z,85
2018-12-30T22:38:11.332Z,85.5
2018-12-30T22:53:21.225Z,85.8
2018-12-30T23:08:35.159Z,87.2
2018-12-30T23:23:47.639Z,88.2
2018-12-30T23:39:00.375Z,87.1
2018-12-30T23:54:05.539Z,87.3
